CheckWX is a tool to help pilots better visualize weather data.  It is not intended as a substitute for an official pre-flight weather briefing.

08:18:44 UTC

KPTW METAR
Heritage Field Airport
Pottstown, Pennsylvania, USA
Current

25 mins ago

KPTW 220754Z AUTO 30006KT 10SM CLR 05/M03 A3023 RMK AO2 SLP237 T00501033
Observed
Feb-22 @ 07:54 UTC
Wind
  • 300° at 6 KTS
Visibility
10 SM
Flight Rules
VFR
Cloud Levels
  • Clear skies
Temperature
C / 41°F
Dewpoint
-3°C / 27°F
Humidity
57%
Altimeter
30.23" Hg
Pressure
1023.7 hPa
Previous

1 hour ago

KPTW 220654Z AUTO 29006KT 10SM CLR 05/M03 A3024 RMK AO2 SLP240 T00501033
Observed
Feb-22 @ 06:54 UTC
Wind
  • 290° at 6 KTS
Visibility
10 SM
Flight Rules
VFR
Cloud Levels
  • Clear skies
Temperature
C / 41°F
Dewpoint
-3°C / 27°F
Humidity
57%
Altimeter
30.24" Hg
Pressure
1024 hPa
Previous

2 hours ago

KPTW 220554Z AUTO 28005KT 10SM CLR 06/M04 A3023 RMK AO2 SLP236 T00561039 10072 20056 53028
Observed
Feb-22 @ 05:54 UTC
Wind
  • 280° at 5 KTS
Visibility
10 SM
Flight Rules
VFR
Cloud Levels
  • Clear skies
Temperature
C / 43°F
Dewpoint
-4°C / 25°F
Humidity
49%
Altimeter
30.23" Hg
Pressure
1023.6 hPa